Time;durP1;ratioP1;P1;durP2;ratioP2;P2;SDS_P1;SDS_P2;PMS_P1;PMS_P2;Temp;Humidity;BMP_temperature;BMP_pressure;BME280_temperature;BME280_humidity;BME280_pressure;Samples;Min_cycle;Max_cycle;Signal;HPM_P1;HPM_P2
2021/12/28 00:01:25;;;;;;;12.60;6.85;;;6.80;99.80;;;;;;10445358;28;20049;-75
2021/12/28 00:06:26;;;;;;;13.65;7.38;;;6.80;99.80;;;;;;10439497;28;20053;-75
2021/12/28 00:11:26;;;;;;;13.57;7.70;;;6.80;99.90;;;;;;10414161;28;20029;-76
2021/12/28 00:21:48;;;;;;;12.50;6.90;;;6.90;99.90;;;;;;10413478;28;20045;-76
2021/12/28 00:26:49;;;;;;;11.30;7.22;;;6.90;99.90;;;;;;10440492;28;20033;-75
2021/12/28 00:31:50;;;;;;;13.85;7.78;;;7.20;99.90;;;;;;10426188;28;20258;-75
2021/12/28 00:36:50;;;;;;;13.43;7.65;;;6.90;99.90;;;;;;10394357;28;20179;-76
2021/12/28 00:41:51;;;;;;;13.02;7.57;;;6.90;99.90;;;;;;10427648;28;20056;-76
2021/12/28 00:46:52;;;;;;;14.93;8.00;;;7.00;99.90;;;;;;10429513;28;20400;-76
2021/12/28 00:51:54;;;;;;;16.30;8.15;;;6.90;99.90;;;;;;10411109;28;20521;-76
2021/12/28 00:56:55;;;;;;;13.18;8.02;;;7.00;99.90;;;;;;10416544;28;20037;-76
2021/12/28 01:01:56;;;;;;;13.02;7.55;;;6.90;99.90;;;;;;10450363;28;20036;-76
2021/12/28 01:06:56;;;;;;;14.95;8.57;;;7.20;99.90;;;;;;10449493;28;20053;-76
2021/12/28 01:11:59;;;;;;;17.35;8.40;;;7.00;99.90;;;;;;10451104;28;20407;-76
2021/12/28 01:16:59;;;;;;;16.02;8.60;;;7.00;99.90;;;;;;10450257;28;20044;-76
2021/12/28 01:22:01;;;;;;;14.93;8.57;;;7.20;99.90;;;;;;10450588;28;20052;-76
2021/12/28 01:27:02;;;;;;;15.27;8.52;;;7.00;99.90;;;;;;10442274;28;20029;-76
2021/12/28 01:32:03;;;;;;;20.15;8.65;;;7.10;99.90;;;;;;10448317;28;20325;-76
2021/12/28 01:37:04;;;;;;;13.82;8.10;;;7.00;99.90;;;;;;10416491;28;20041;-76
2021/12/28 01:42:07;;;;;;;14.80;8.20;;;7.10;99.90;;;;;;10414054;28;20041;-76
2021/12/28 01:47:07;;;;;;;16.40;7.85;;;7.10;99.90;;;;;;10450083;28;20037;-76
2021/12/28 01:52:08;;;;;;;14.63;7.95;;;7.10;99.90;;;;;;10449726;28;20037;-76
2021/12/28 01:57:09;;;;;;;15.40;8.18;;;7.20;99.90;;;;;;10449924;28;20073;-76
2021/12/28 02:02:10;;;;;;;17.35;8.27;;;7.60;99.90;;;;;;10450312;28;20067;-76
2021/12/28 02:07:10;;;;;;;15.65;7.78;;;7.10;99.90;;;;;;10406681;28;20447;-76
2021/12/28 02:12:11;;;;;;;17.95;9.18;;;7.10;99.90;;;;;;10449529;28;20083;-76
2021/12/28 02:17:13;;;;;;;15.05;9.13;;;7.10;99.90;;;;;;10414799;28;20410;-77
2021/12/28 02:22:14;;;;;;;14.63;8.25;;;7.10;99.90;;;;;;10445480;28;20424;-76
2021/12/28 02:27:15;;;;;;;15.90;7.78;;;7.10;99.90;;;;;;10446663;28;20041;-76
2021/12/28 02:32:15;;;;;;;19.27;8.68;;;7.20;99.90;;;;;;10410094;28;20037;-76
2021/12/28 02:37:56;;;;;;;18.02;8.50;;;7.20;99.90;;;;;;10442048;28;20044;-76
2021/12/28 02:43:57;;;;;;;14.68;8.57;;;7.20;99.90;;;;;;10431615;28;20033;-76
2021/12/28 02:49:57;;;;;;;15.35;7.75;;;7.20;99.90;;;;;;10443413;28;20478;-77
2021/12/28 02:55:20;;;;;;;16.05;8.13;;;7.20;99.90;;;;;;10434466;28;20399;-76
2021/12/28 03:01:14;;;;;;;14.65;8.05;;;7.20;99.90;;;;;;10446789;28;20515;-76
2021/12/28 03:07:13;;;;;;;15.38;7.65;;;7.20;99.90;;;;;;10433270;28;20095;-76
2021/12/28 03:13:14;;;;;;;15.45;7.80;;;7.20;99.90;;;;;;10438467;28;20033;-76
2021/12/28 03:19:14;;;;;;;14.73;7.30;;;7.30;99.90;;;;;;10424415;28;20085;-76
2021/12/28 03:25:14;;;;;;;15.20;7.43;;;7.30;99.90;;;;;;10431749;28;20091;-77
2021/12/28 03:30:35;;;;;;;15.55;7.80;;;7.30;99.90;;;;;;10444894;28;20067;-76
2021/12/28 03:36:16;;;;;;;20.63;8.13;;;7.30;99.90;;;;;;10443762;28;20037;-76
2021/12/28 03:42:16;;;;;;;14.68;7.82;;;7.50;99.90;;;;;;10444113;28;20105;-77
2021/12/28 03:48:17;;;;;;;15.20;7.40;;;7.30;99.90;;;;;;10436959;28;20082;-76
2021/12/28 17:38:04;;;;;;;11.50;2.67;;;8.60;99.90;;;;;;10374763;28;20049;-72
2021/12/28 17:43:06;;;;;;;9.13;2.28;;;8.70;99.90;;;;;;10378288;28;20073;-77
2021/12/28 17:48:09;;;;;;;8.10;2.10;;;8.60;99.90;;;;;;10364144;28;20130;-73
2021/12/28 17:53:10;;;;;;;9.52;2.13;;;8.70;99.90;;;;;;10366919;28;20046;-71
2021/12/28 17:58:10;;;;;;;6.95;1.85;;;8.60;99.90;;;;;;10360074;28;20049;-71
2021/12/28 18:03:11;;;;;;;9.85;1.52;;;8.60;99.90;;;;;;10355776;28;20046;-71
2021/12/28 18:08:12;;;;;;;7.95;1.90;;;8.60;99.90;;;;;;10363857;28;20041;-71
2021/12/28 18:13:13;;;;;;;8.50;1.65;;;8.60;99.90;;;;;;10359345;28;20408;-72
2021/12/28 18:18:16;;;;;;;9.63;2.17;;;8.80;99.90;;;;;;10350371;28;20050;-73
2021/12/28 18:23:17;;;;;;;9.20;1.90;;;8.70;99.90;;;;;;10369300;28;20141;-72
2021/12/28 18:28:18;;;;;;;6.70;1.90;;;8.60;99.90;;;;;;10366502;28;20034;-71
2021/12/28 18:33:19;;;;;;;6.65;2.08;;;8.60;99.90;;;;;;10362194;28;20049;-79
2021/12/28 18:38:23;;;;;;;6.30;1.90;;;8.30;99.90;;;;;;10399981;28;20062;-76
2021/12/28 18:43:24;;;;;;;6.07;1.48;;;8.60;99.90;;;;;;10381294;28;20046;-77
2021/12/28 18:48:26;;;;;;;7.78;1.70;;;8.60;99.90;;;;;;10378126;28;20120;-79
2021/12/28 18:54:07;;;;;;;7.53;2.05;;;8.60;99.90;;;;;;10395907;28;20092;-79
2021/12/28 19:00:06;;;;;;;5.72;2.13;;;8.60;99.90;;;;;;10403838;28;20045;-79
2021/12/28 19:06:07;;;;;;;3.70;1.10;;;8.60;99.90;;;;;;10375829;28;20123;-78
2021/12/28 19:12:07;;;;;;;9.75;1.90;;;8.70;99.90;;;;;;10392578;28;20033;-78
2021/12/28 19:18:08;;;;;;;5.50;1.52;;;8.60;99.90;;;;;;10378610;28;20045;-78
2021/12/28 19:24:08;;;;;;;6.60;2.08;;;8.70;99.90;;;;;;10397228;28;20037;-76
2021/12/28 19:29:29;;;;;;;4.00;1.52;;;9.20;99.90;;;;;;10399751;28;20083;-76
2021/12/28 19:34:30;;;;;;;5.45;1.52;;;9.30;99.90;;;;;;10391231;28;20053;-76
2021/12/28 19:39:31;;;;;;;7.63;1.88;;;8.60;99.90;;;;;;10396444;28;20069;-76
2021/12/28 19:44:32;;;;;;;5.38;1.30;;;8.60;99.90;;;;;;10401578;28;20040;-76
2021/12/28 19:49:37;;;;;;;5.32;1.52;;;8.60;99.90;;;;;;10396368;28;20044;-76
2021/12/28 19:54:39;;;;;;;4.88;1.65;;;8.60;99.90;;;;;;10401918;28;20044;-72
2021/12/28 19:59:40;;;;;;;7.10;1.60;;;8.60;99.90;;;;;;10401241;28;20061;-71
2021/12/28 20:04:41;;;;;;;7.07;2.00;;;8.70;99.90;;;;;;10390022;28;20021;-71
2021/12/28 20:09:42;;;;;;;6.13;1.90;;;8.60;99.90;;;;;;10395580;28;20063;-72
2021/12/28 20:14:44;;;;;;;3.55;1.48;;;8.60;99.90;;;;;;10396136;28;20034;-72
2021/12/28 20:19:45;;;;;;;6.82;2.22;;;8.30;99.90;;;;;;10399615;28;20041;-72
2021/12/28 20:24:47;;;;;;;4.57;1.92;;;8.50;99.90;;;;;;10400269;28;20040;-71
2021/12/28 20:29:48;;;;;;;4.47;1.90;;;8.60;99.90;;;;;;10395157;28;20048;-72
2021/12/28 20:34:51;;;;;;;7.55;2.22;;;8.50;99.90;;;;;;10378842;28;20500;-72
2021/12/28 20:39:51;;;;;;;5.20;2.05;;;8.50;99.90;;;;;;10372849;28;20056;-72
2021/12/28 20:44:52;;;;;;;8.50;2.20;;;8.60;99.90;;;;;;10397034;28;20557;-73
2021/12/28 20:49:53;;;;;;;4.80;2.20;;;8.50;99.90;;;;;;10402943;28;20098;-72
2021/12/28 20:54:54;;;;;;;7.38;2.38;;;8.60;99.90;;;;;;10389337;28;20042;-74
2021/12/28 20:59:55;;;;;;;7.55;2.53;;;8.60;99.90;;;;;;10378206;28;20455;-72
2021/12/28 21:04:56;;;;;;;6.70;2.20;;;8.50;99.90;;;;;;10376168;28;20206;-72
2021/12/28 21:09:56;;;;;;;6.65;2.45;;;8.50;99.90;;;;;;10382073;28;20135;-72
2021/12/28 21:14:57;;;;;;;5.72;2.45;;;8.50;99.90;;;;;;10386662;28;20488;-72
2021/12/28 21:19:58;;;;;;;7.68;2.88;;;8.50;99.90;;;;;;10379778;28;20052;-71
2021/12/28 21:24:59;;;;;;;4.43;2.72;;;8.70;99.90;;;;;;10378345;28;20045;-71
2021/12/28 21:30:06;;;;;;;6.90;2.47;;;8.60;99.90;;;;;;10387525;28;20121;-71
2021/12/28 21:35:07;;;;;;;4.50;2.38;;;8.60;99.90;;;;;;10388530;28;20108;-71
2021/12/28 21:40:48;;;;;;;7.55;3.15;;;8.60;99.90;;;;;;10390357;28;20208;-72
2021/12/28 21:46:48;;;;;;;6.18;2.28;;;8.60;99.90;;;;;;10406778;28;20506;-70
2021/12/28 21:52:49;;;;;;;5.50;2.50;;;8.70;99.90;;;;;;10396179;28;20485;-72
2021/12/28 21:58:49;;;;;;;4.00;2.42;;;8.60;99.90;;;;;;10397151;28;20658;-71
2021/12/28 22:04:51;;;;;;;3.33;1.95;;;8.60;99.90;;;;;;10402223;28;20407;-74
2021/12/28 22:10:50;;;;;;;8.20;2.53;;;8.70;99.90;;;;;;10393960;28;20114;-71
2021/12/28 22:16:51;;;;;;;2.67;1.50;;;9.10;99.90;;;;;;10404354;28;20033;-71
2021/12/28 22:22:13;;;;;;;5.30;1.95;;;8.70;99.90;;;;;;10405037;28;20064;-72
2021/12/28 22:27:15;;;;;;;3.72;1.88;;;8.70;99.90;;;;;;10407667;28;20167;-71
2021/12/28 22:32:20;;;;;;;5.30;1.98;;;8.70;99.90;;;;;;10406891;28;20057;-71
2021/12/28 22:37:21;;;;;;;4.93;2.47;;;8.70;99.90;;;;;;10374106;28;20127;-71
2021/12/28 22:42:21;;;;;;;4.45;1.98;;;8.70;99.90;;;;;;10406603;28;20045;-71
2021/12/28 22:47:22;;;;;;;5.20;2.65;;;8.70;99.90;;;;;;10406942;28;20511;-71
2021/12/28 22:52:23;;;;;;;6.47;2.05;;;8.70;99.90;;;;;;10406136;28;20034;-71
2021/12/28 22:57:23;;;;;;;5.43;2.00;;;8.70;99.90;;;;;;10405951;28;20042;-71
2021/12/28 23:02:24;;;;;;;4.20;1.95;;;9.00;99.90;;;;;;10387746;28;20623;-71
2021/12/28 23:07:27;;;;;;;5.78;1.70;;;8.60;99.90;;;;;;10404582;28;20040;-71
2021/12/28 23:12:28;;;;;;;3.90;2.15;;;8.60;99.90;;;;;;10399165;28;20120;-71
2021/12/28 23:17:31;;;;;;;3.50;1.80;;;8.60;99.90;;;;;;10405057;28;20561;-71
2021/12/28 23:22:31;;;;;;;3.28;1.70;;;8.60;99.90;;;;;;10399738;28;20180;-71
2021/12/28 23:27:32;;;;;;;3.88;1.92;;;8.60;99.90;;;;;;10405135;28;20135;-70
2021/12/28 23:32:35;;;;;;;4.53;1.88;;;8.60;99.90;;;;;;10387429;28;20120;-71
2021/12/28 23:37:37;;;;;;;2.70;1.67;;;8.60;99.90;;;;;;10387493;28;20058;-70
2021/12/28 23:42:39;;;;;;;3.15;1.38;;;8.60;99.90;;;;;;10404629;28;20041;-70
2021/12/28 23:47:40;;;;;;;3.10;1.50;;;8.60;99.90;;;;;;10404898;28;20395;-70
2021/12/28 23:52:41;;;;;;;3.60;1.50;;;8.60;99.90;;;;;;10405122;28;20121;-71
2021/12/28 23:57:43;;;;;;;2.42;1.33;;;8.60;99.90;;;;;;10387187;28;20558;-70
